Time;durP1;ratioP1;P1;durP2;ratioP2;P2;SDS_P1;SDS_P2;PMS_P1;PMS_P2;Temp;Humidity;BMP_temperature;BMP_pressure;BME280_temperature;BME280_humidity;BME280_pressure;Samples;Min_cycle;Max_cycle;Signal;HPM_P1;HPM_P2
2021/01/28 00:00:42;;;;;;;13.50;12.50;;;1.10;85.00;;;;;;5167063;28;20046;-69
2021/01/28 00:03:14;;;;;;;13.88;12.77;;;1.10;85.10;;;;;;5172413;28;20088;-68
2021/01/28 00:05:48;;;;;;;13.52;12.43;;;1.10;85.00;;;;;;5168061;28;20413;-70
2021/01/28 00:08:19;;;;;;;13.50;12.50;;;1.10;85.60;;;;;;5170036;28;20038;-68
2021/01/28 00:10:51;;;;;;;14.00;13.00;;;1.10;85.50;;;;;;5166031;28;20476;-71
2021/01/28 00:13:22;;;;;;;14.15;13.15;;;1.00;85.90;;;;;;5168639;28;20112;-71
2021/01/28 00:15:54;;;;;;;13.35;12.35;;;1.10;85.60;;;;;;5164581;28;20050;-70
2021/01/28 00:18:26;;;;;;;14.30;13.30;;;1.10;85.40;;;;;;5167528;28;20529;-68
2021/01/28 00:20:58;;;;;;;13.80;12.80;;;1.10;86.00;;;;;;5164957;28;20038;-72
2021/01/28 00:23:29;;;;;;;13.60;12.60;;;1.10;85.80;;;;;;5166970;28;20049;-68
2021/01/28 00:26:01;;;;;;;13.90;12.90;;;1.10;86.20;;;;;;5166208;28;20056;-68
2021/01/28 00:28:32;;;;;;;13.70;12.70;;;1.10;86.30;;;;;;5172386;28;20038;-70
2021/01/28 00:31:04;;;;;;;13.75;12.70;;;1.10;86.60;;;;;;5166926;28;20111;-70
2021/01/28 00:33:35;;;;;;;14.10;13.10;;;1.10;86.30;;;;;;5165670;28;20046;-71
2021/01/28 00:36:08;;;;;;;13.80;12.80;;;1.20;86.40;;;;;;5166102;28;20416;-68
2021/01/28 00:38:40;;;;;;;13.90;12.90;;;1.10;86.60;;;;;;5167377;28;20506;-70
2021/01/28 00:41:19;;;;;;;14.00;13.00;;;1.10;86.30;;;;;;5172080;28;20411;-69
2021/01/28 00:43:52;;;;;;;13.32;12.40;;;1.10;87.20;;;;;;5165361;28;20044;-70
2021/01/28 00:46:23;;;;;;;13.95;12.95;;;1.10;87.10;;;;;;5165794;28;20050;-71
2021/01/28 00:48:55;;;;;;;13.40;12.50;;;1.20;86.60;;;;;;5170767;28;20046;-69
2021/01/28 00:51:27;;;;;;;13.65;12.75;;;1.10;87.10;;;;;;5172591;28;20041;-71
2021/01/28 00:53:59;;;;;;;13.38;12.48;;;1.20;87.00;;;;;;5166961;28;20046;-69
2021/01/28 00:56:30;;;;;;;13.60;12.70;;;1.20;86.90;;;;;;5166209;28;20049;-68
2021/01/28 00:59:02;;;;;;;13.73;12.73;;;1.20;86.80;;;;;;5170275;28;20065;-69
2021/01/28 01:01:34;;;;;;;13.40;12.50;;;1.20;86.90;;;;;;5171007;28;20039;-68
2021/01/28 01:04:06;;;;;;;13.80;12.90;;;1.20;86.90;;;;;;5173386;28;20052;-69
2021/01/28 01:06:38;;;;;;;14.27;13.27;;;1.30;86.70;;;;;;5164327;28;20049;-68
2021/01/28 01:09:10;;;;;;;14.35;13.35;;;1.30;86.60;;;;;;5171158;28;20611;-69
2021/01/28 01:11:57;;;;;;;13.65;12.75;;;1.40;86.20;;;;;;5165102;28;20046;-68
2021/01/28 01:14:29;;;;;;;14.25;13.25;;;1.40;85.80;;;;;;5166094;28;21770;-68
2021/01/28 01:17:01;;;;;;;13.98;13.07;;;1.40;85.50;;;;;;5171970;28;20124;-68
2021/01/28 01:19:34;;;;;;;13.60;12.70;;;1.40;85.30;;;;;;5171101;28;20046;-68
2021/01/28 01:22:13;;;;;;;14.00;13.00;;;1.40;85.00;;;;;;5173007;28;20165;-68
2021/01/28 01:24:45;;;;;;;14.52;13.52;;;1.40;84.80;;;;;;5168678;28;20038;-68
2021/01/28 01:27:17;;;;;;;14.50;13.50;;;1.50;85.00;;;;;;5171057;28;20458;-67
2021/01/28 01:29:49;;;;;;;14.10;13.10;;;1.50;84.50;;;;;;5170665;28;20038;-69
2021/01/28 01:32:24;;;;;;;15.07;13.98;;;1.50;84.90;;;;;;5170840;28;20418;-68
2021/01/28 01:35:22;;;;;;;14.75;13.63;;;1.50;84.70;;;;;;5164512;28;20045;-69
2021/01/28 01:37:55;;;;;;;14.55;13.55;;;1.50;84.70;;;;;;5168999;28;20142;-69
2021/01/28 01:40:32;;;;;;;14.50;13.50;;;1.50;84.90;;;;;;5187887;28;20037;-69
2021/01/28 01:43:06;;;;;;;14.80;13.70;;;1.50;85.30;;;;;;5172849;28;20124;-69
2021/01/28 01:45:56;;;;;;;14.32;13.32;;;1.40;85.10;;;;;;5157707;28;20038;-69
2021/01/28 01:48:38;;;;;;;14.93;13.82;;;1.40;85.70;;;;;;5171282;28;20042;-71
2021/01/28 01:51:24;;;;;;;13.82;12.82;;;1.40;85.30;;;;;;5170346;28;20814;-69
2021/01/28 01:54:09;;;;;;;14.50;13.50;;;1.40;85.80;;;;;;5168208;28;20049;-70
2021/01/28 01:56:54;;;;;;;13.48;12.57;;;1.40;85.60;;;;;;5168677;28;20038;-70
2021/01/28 01:59:53;;;;;;;13.85;12.85;;;1.40;85.30;;;;;;5169631;28;20046;-69
2021/01/28 02:02:55;;;;;;;13.68;12.77;;;1.50;85.40;;;;;;5168698;28;20101;-69
2021/01/28 02:05:49;;;;;;;13.85;12.95;;;1.50;86.00;;;;;;5164874;28;20045;-73
2021/01/28 02:08:52;;;;;;;13.70;12.75;;;1.50;85.80;;;;;;5155519;28;20278;-70
2021/01/28 02:11:46;;;;;;;13.93;12.93;;;1.50;85.70;;;;;;5166959;28;20136;-69
2021/01/28 02:14:46;;;;;;;13.82;12.93;;;1.50;86.10;;;;;;5173207;28;20317;-69
2021/01/28 02:17:24;;;;;;;13.82;12.93;;;1.50;86.10;;;;;;5168388;28;21818;-71
2021/01/28 02:20:47;;;;;;;13.82;12.93;;;1.50;86.20;;;;;;5185851;28;20050;-69
2021/01/28 02:23:47;;;;;;;13.90;12.95;;;1.50;85.70;;;;;;5184339;28;20050;-69
2021/01/28 02:26:30;;;;;;;13.63;12.73;;;1.50;85.90;;;;;;5161634;28;20869;-70
2021/01/28 02:29:21;;;;;;;14.10;13.10;;;1.50;85.50;;;;;;5170833;28;20056;-70
2021/01/28 02:31:55;;;;;;;13.90;12.90;;;1.50;85.70;;;;;;5162103;28;20290;-70
2021/01/28 02:34:31;;;;;;;14.57;13.57;;;1.50;85.60;;;;;;5170827;28;20442;-70
2021/01/28 02:37:21;;;;;;;13.82;12.90;;;1.50;85.50;;;;;;5169928;28;20089;-72
2021/01/28 02:40:02;;;;;;;14.35;13.35;;;1.50;85.90;;;;;;5162781;28;20053;-72
2021/01/28 02:42:52;;;;;;;14.35;13.35;;;1.50;86.50;;;;;;5163172;28;20097;-70
2021/01/28 02:45:38;;;;;;;13.80;12.90;;;1.50;85.90;;;;;;5170352;28;20056;-69
2021/01/28 02:48:19;;;;;;;13.55;12.65;;;1.50;86.00;;;;;;5157366;28;20061;-69
2021/01/28 02:50:54;;;;;;;14.18;13.15;;;1.50;85.90;;;;;;5168210;28;20585;-69
2021/01/28 02:53:42;;;;;;;14.05;13.07;;;1.50;86.00;;;;;;5170996;28;20126;-69
2021/01/28 02:56:17;;;;;;;14.20;13.20;;;1.50;85.80;;;;;;5169478;28;20042;-69
2021/01/28 02:58:49;;;;;;;14.00;13.00;;;1.50;86.30;;;;;;5184394;28;20034;-69
2021/01/28 03:01:24;;;;;;;13.57;12.68;;;1.50;86.20;;;;;;5171243;28;20425;-69
2021/01/28 03:03:59;;;;;;;14.73;13.63;;;1.50;86.20;;;;;;5163752;28;20129;-69
2021/01/28 03:06:31;;;;;;;13.68;12.77;;;1.60;85.70;;;;;;5170260;28;20093;-70
2021/01/28 03:09:07;;;;;;;13.85;12.95;;;1.50;86.00;;;;;;5170294;28;20045;-69
2021/01/28 03:11:59;;;;;;;13.85;12.85;;;1.60;85.70;;;;;;5162558;28;20099;-70
2021/01/28 03:14:57;;;;;;;13.90;12.90;;;1.60;85.10;;;;;;5167114;28;20054;-68
2021/01/28 03:17:29;;;;;;;13.55;12.55;;;1.60;85.30;;;;;;5169364;28;20042;-68
2021/01/28 03:20:07;;;;;;;13.20;12.30;;;1.60;85.20;;;;;;5185698;28;20080;-70
2021/01/28 03:22:41;;;;;;;13.70;12.80;;;1.60;85.70;;;;;;5164840;28;20318;-68
2021/01/28 03:25:34;;;;;;;14.00;13.00;;;1.60;85.80;;;;;;5149220;28;20049;-69
2021/01/28 03:28:06;;;;;;;13.57;12.60;;;1.60;86.10;;;;;;5162474;28;20060;-71
2021/01/28 03:30:46;;;;;;;13.75;12.80;;;1.60;85.80;;;;;;5161445;28;20078;-69
2021/01/28 03:33:20;;;;;;;13.40;12.50;;;1.60;85.90;;;;;;5154247;28;20718;-68
2021/01/28 03:35:54;;;;;;;13.50;12.50;;;1.50;85.80;;;;;;5180671;28;20751;-70
2021/01/28 03:38:27;;;;;;;13.90;12.93;;;1.60;85.90;;;;;;5160696;28;20046;-71
2021/01/28 03:41:01;;;;;;;13.48;12.57;;;1.60;85.90;;;;;;5185737;28;20504;-71
2021/01/28 03:43:33;;;;;;;13.13;12.13;;;1.60;86.00;;;;;;5169491;28;20142;-71
2021/01/28 03:46:05;;;;;;;13.70;12.80;;;1.60;86.50;;;;;;5154992;28;20108;-71
2021/01/28 03:48:47;;;;;;;13.68;12.77;;;1.50;86.40;;;;;;5170089;28;20042;-69
2021/01/28 03:51:33;;;;;;;13.90;12.95;;;1.50;86.90;;;;;;5160783;28;20505;-71
2021/01/28 03:54:23;;;;;;;14.10;13.10;;;1.50;86.80;;;;;;5188300;28;20046;-69
2021/01/28 03:57:01;;;;;;;13.68;12.68;;;1.50;87.10;;;;;;5167560;28;20041;-70
2021/01/28 03:59:32;;;;;;;14.60;13.55;;;1.60;86.70;;;;;;5141955;28;20508;-70
2021/01/28 04:02:28;;;;;;;13.90;12.90;;;1.60;86.40;;;;;;5164333;28;20052;-70
2021/01/28 04:05:20;;;;;;;14.07;13.07;;;1.60;86.00;;;;;;5167110;28;20808;-70
2021/01/28 04:08:11;;;;;;;13.80;12.90;;;1.60;86.20;;;;;;5171469;28;20050;-69
2021/01/28 04:11:04;;;;;;;13.65;12.75;;;1.60;85.90;;;;;;5159353;28;20061;-70
2021/01/28 04:13:36;;;;;;;13.90;12.90;;;1.60;85.70;;;;;;5174076;28;20502;-69
2021/01/28 04:16:08;;;;;;;14.10;13.10;;;1.60;85.80;;;;;;5171501;28;20095;-70
2021/01/28 04:18:40;;;;;;;13.68;12.77;;;1.60;86.30;;;;;;5168591;28;20509;-71
2021/01/28 04:21:32;;;;;;;13.65;12.65;;;1.60;86.10;;;;;;5166529;28;20073;-70
2021/01/28 04:24:07;;;;;;;14.05;13.13;;;1.60;86.50;;;;;;5182028;28;20054;-70
2021/01/28 04:26:53;;;;;;;13.70;12.80;;;1.60;86.40;;;;;;5165503;28;20590;-70
2021/01/28 04:29:37;;;;;;;13.52;12.55;;;1.60;86.30;;;;;;5190769;28;20054;-71
2021/01/28 04:32:23;;;;;;;13.90;13.00;;;1.60;86.00;;;;;;5166490;28;20061;-69
2021/01/28 04:35:14;;;;;;;14.07;13.07;;;1.70;86.00;;;;;;5165096;28;20069;-69
2021/01/28 04:37:47;;;;;;;14.20;13.20;;;1.70;86.30;;;;;;5155114;28;20057;-70
2021/01/28 04:40:35;;;;;;;13.90;13.00;;;1.70;86.00;;;;;;5168822;28;20049;-69
2021/01/28 04:43:17;;;;;;;13.55;12.65;;;1.70;86.00;;;;;;5187858;28;20047;-70
2021/01/28 04:45:57;;;;;;;13.77;12.77;;;1.70;86.00;;;;;;5171697;28;20045;-69
2021/01/28 04:48:34;;;;;;;13.98;12.98;;;1.60;86.00;;;;;;5173669;28;20584;-69
2021/01/28 04:51:18;;;;;;;13.27;12.38;;;1.60;86.10;;;;;;5156396;28;20788;-69
2021/01/28 04:54:12;;;;;;;13.50;12.50;;;1.70;86.10;;;;;;5174488;28;20628;-69
2021/01/28 04:56:44;;;;;;;13.25;12.35;;;1.60;86.10;;;;;;5181103;28;20046;-72
2021/01/28 04:59:43;;;;;;;;;;;1.60;86.00;;;;;;5157330;28;20042;-72
2021/01/28 05:02:18;;;;;;;14.13;13.13;;;1.60;86.50;;;;;;5170166;28;20401;-71
2021/01/28 05:05:11;;;;;;;14.10;13.10;;;1.60;86.40;;;;;;5166647;28;20132;-70
2021/01/28 05:08:08;;;;;;;13.88;12.88;;;1.60;86.30;;;;;;5172476;28;20057;-72
2021/01/28 05:11:20;;;;;;;14.60;13.50;;;1.60;86.00;;;;;;5165562;28;20536;-71
2021/01/28 05:14:19;;;;;;;14.45;13.45;;;1.60;86.50;;;;;;5173426;28;20091;-70
2021/01/28 05:17:20;;;;;;;14.52;13.52;;;1.50;86.80;;;;;;5186597;28;20042;-73
2021/01/28 05:20:23;;;;;;;15.07;13.98;;;1.50;87.90;;;;;;5171199;28;20298;-70
2021/01/28 05:23:11;;;;;;;14.90;13.77;;;1.40;88.80;;;;;;5174205;28;20072;-73
2021/01/28 05:25:50;;;;;;;14.65;13.65;;;1.50;88.50;;;;;;5170394;28;20432;-71
2021/01/28 05:28:41;;;;;;;14.57;13.57;;;1.50;88.40;;;;;;5173424;28;20066;-72
2021/01/28 05:31:41;;;;;;;14.40;13.40;;;1.50;88.00;;;;;;5158012;28;20038;-72
2021/01/28 05:34:34;;;;;;;14.32;13.32;;;1.50;88.00;;;;;;5168635;28;20057;-70
2021/01/28 05:37:23;;;;;;;14.55;13.55;;;1.50;87.80;;;;;;5171805;28;20049;-71
2021/01/28 05:40:26;;;;;;;14.32;13.32;;;1.50;88.00;;;;;;5169134;28;20063;-71
2021/01/28 05:43:38;;;;;;;14.18;13.18;;;1.50;88.00;;;;;;5189255;28;20046;-72
2021/01/28 05:46:29;;;;;;;13.93;12.93;;;1.50;88.00;;;;;;5158498;28;20057;-72
2021/01/28 05:49:12;;;;;;;14.30;13.30;;;1.60;87.70;;;;;;5169023;28;20057;-71
2021/01/28 05:51:55;;;;;;;13.90;12.90;;;1.60;88.00;;;;;;5182122;28;20811;-72
2021/01/28 05:55:15;;;;;;;14.15;13.15;;;1.60;87.90;;;;;;5172540;28;20053;-71
2021/01/28 05:58:01;;;;;;;14.18;13.18;;;1.60;87.70;;;;;;5190954;28;20052;-70
2021/01/28 06:00:47;;;;;;;14.15;13.15;;;1.50;87.90;;;;;;5168545;28;20062;-70
2021/01/28 06:03:38;;;;;;;13.82;12.90;;;1.50;87.70;;;;;;5139599;28;20048;-73
2021/01/28 06:07:05;;;;;;;13.75;12.85;;;1.50;88.00;;;;;;5172971;28;20052;-73
2021/01/28 06:10:06;;;;;;;13.65;12.70;;;1.50;87.90;;;;;;5168437;28;20041;-71
2021/01/28 06:13:28;;;;;;;14.18;13.07;;;1.50;88.10;;;;;;5166456;28;20064;-73
2021/01/28 06:16:41;;;;;;;13.73;12.80;;;1.50;88.20;;;;;;5188078;28;20046;-69
2021/01/28 06:19:25;;;;;;;13.48;12.57;;;1.50;88.50;;;;;;5170117;28;20041;-72
2021/01/28 06:22:41;;;;;;;13.52;12.52;;;1.50;88.90;;;;;;5170929;28;20038;-70
2021/01/28 06:25:53;;;;;;;14.05;13.05;;;1.50;88.50;;;;;;5161869;28;20124;-70
2021/01/28 06:29:09;;;;;;;14.15;13.15;;;1.50;89.30;;;;;;5147247;28;20512;-74
2021/01/28 06:31:56;;;;;;;14.30;13.30;;;1.50;89.70;;;;;;5153285;28;20095;-74
2021/01/28 06:35:02;;;;;;;14.88;13.80;;;1.60;89.60;;;;;;5170189;28;20073;-70
2021/01/28 06:38:41;;;;;;;14.32;13.32;;;1.60;88.40;;;;;;5167088;28;20057;-70
2021/01/28 06:42:02;;;;;;;14.68;13.68;;;1.60;88.30;;;;;;5144388;28;20770;-71
2021/01/28 06:44:55;;;;;;;14.77;13.75;;;1.60;88.30;;;;;;5164162;28;20053;-72
2021/01/28 06:48:16;;;;;;;14.40;13.40;;;1.70;87.90;;;;;;5173980;28;20061;-71
2021/01/28 06:51:15;;;;;;;14.48;13.38;;;1.60;87.80;;;;;;5165122;28;20604;-73
2021/01/28 06:54:03;;;;;;;14.32;13.05;;;1.70;87.80;;;;;;5171321;28;20690;-70
2021/01/28 06:57:25;;;;;;;13.98;12.98;;;1.70;87.50;;;;;;5165613;28;20127;-70
2021/01/28 07:00:32;;;;;;;13.85;12.85;;;1.70;87.30;;;;;;5150247;28;20549;-70
2021/01/28 07:03:16;;;;;;;13.90;12.90;;;1.70;87.50;;;;;;5170107;28;20040;-70
2021/01/28 07:06:19;;;;;;;14.25;13.25;;;1.70;87.20;;;;;;5187761;28;20042;-70
2021/01/28 07:09:10;;;;;;;14.43;13.40;;;1.70;87.00;;;;;;5152153;28;20388;-71
2021/01/28 07:12:06;;;;;;;14.32;13.32;;;1.70;86.90;;;;;;5167117;28;20409;-72
2021/01/28 07:15:11;;;;;;;14.48;13.35;;;1.70;87.10;;;;;;5166117;28;20446;-71
2021/01/28 07:18:15;;;;;;;13.95;12.95;;;1.70;87.30;;;;;;5162590;28;20140;-71
2021/01/28 07:21:00;;;;;;;14.35;13.25;;;1.60;87.30;;;;;;5166611;28;20049;-71
2021/01/28 07:23:38;;;;;;;14.70;13.60;;;1.70;88.40;;;;;;5171253;28;20053;-71
2021/01/28 07:26:14;;;;;;;14.27;13.27;;;1.70;88.00;;;;;;5167258;28;20042;-72
2021/01/28 07:28:47;;;;;;;14.13;13.13;;;1.70;87.60;;;;;;5169665;28;20038;-71
2021/01/28 07:31:39;;;;;;;13.88;12.88;;;1.70;88.30;;;;;;5174056;28;20046;-72
2021/01/28 07:34:14;;;;;;;14.00;13.00;;;1.70;88.30;;;;;;5173665;28;20092;-71
2021/01/28 07:37:21;;;;;;;14.07;13.07;;;1.70;87.80;;;;;;5171452;28;20057;-72
2021/01/28 07:40:11;;;;;;;14.85;13.70;;;1.70;88.00;;;;;;5169543;28;20057;-73
2021/01/28 07:43:05;;;;;;;14.38;13.38;;;1.70;88.20;;;;;;5163396;28;20054;-73
2021/01/28 07:46:23;;;;;;;14.65;13.65;;;1.70;88.50;;;;;;5170016;28;20049;-71
2021/01/28 07:49:26;;;;;;;13.98;12.98;;;1.80;88.40;;;;;;5155955;28;20041;-70
2021/01/28 07:52:40;;;;;;;13.43;12.52;;;1.80;87.70;;;;;;5163779;28;20529;-73
2021/01/28 07:55:38;;;;;;;13.90;12.90;;;1.80;87.70;;;;;;5175113;28;20046;-74
2021/01/28 07:58:22;;;;;;;13.50;12.50;;;1.80;87.40;;;;;;5169547;28;20704;-72
2021/01/28 08:00:56;;;;;;;13.40;12.40;;;1.80;87.80;;;;;;5165377;28;20042;-72
2021/01/28 08:04:01;;;;;;;13.57;12.57;;;1.90;87.80;;;;;;5169316;28;20030;-71
2021/01/28 08:06:35;;;;;;;13.55;12.45;;;1.90;87.50;;;;;;5172793;28;20046;-72
2021/01/28 08:09:09;;;;;;;13.20;12.30;;;1.90;87.40;;;;;;5167719;28;20105;-71
2021/01/28 08:11:49;;;;;;;12.98;12.07;;;1.90;87.10;;;;;;5169644;28;20117;-70
2021/01/28 08:14:23;;;;;;;13.85;12.75;;;1.90;87.00;;;;;;5168411;28;20297;-70
2021/01/28 08:16:56;;;;;;;13.77;12.80;;;1.90;87.00;;;;;;5171720;28;20034;-72
2021/01/28 08:19:28;;;;;;;13.93;12.88;;;1.90;87.00;;;;;;5167900;28;20054;-71
2021/01/28 08:22:12;;;;;;;14.43;13.32;;;2.00;87.50;;;;;;5165055;28;20057;-71
2021/01/28 08:24:57;;;;;;;14.27;13.27;;;2.00;87.20;;;;;;5167737;28;20641;-71
2021/01/28 08:27:38;;;;;;;13.73;12.70;;;2.00;87.20;;;;;;5170724;28;20720;-73
2021/01/28 08:30:15;;;;;;;14.60;13.50;;;2.00;87.10;;;;;;5173412;28;20058;-72
2021/01/28 08:32:58;;;;;;;14.90;13.80;;;2.00;87.00;;;;;;5171589;28;20049;-75
2021/01/28 08:35:40;;;;;;;16.70;15.38;;;2.10;87.20;;;;;;5170175;28;20101;-73
2021/01/28 08:38:14;;;;;;;17.77;16.33;;;2.10;87.10;;;;;;5172663;28;21598;-74
2021/01/28 08:41:06;;;;;;;17.33;15.82;;;2.20;87.10;;;;;;5170551;28;20674;-72
2021/01/28 08:43:37;;;;;;;17.17;15.77;;;2.20;86.90;;;;;;5172899;28;20037;-70
2021/01/28 08:46:11;;;;;;;14.32;13.13;;;2.20;86.70;;;;;;5167798;28;20057;-72
2021/01/28 08:48:43;;;;;;;14.32;13.23;;;2.20;87.30;;;;;;5174934;28;20045;-73
2021/01/28 08:51:23;;;;;;;14.00;13.00;;;2.10;87.30;;;;;;5188628;28;20670;-72
2021/01/28 08:54:03;;;;;;;13.43;12.43;;;2.10;87.50;;;;;;5173686;28;20034;-70
2021/01/28 08:56:39;;;;;;;13.90;12.90;;;2.20;87.90;;;;;;5170775;28;20074;-72
2021/01/28 08:59:14;;;;;;;13.57;12.57;;;2.20;87.60;;;;;;5171651;28;20049;-70
2021/01/28 09:01:52;;;;;;;14.02;12.93;;;2.20;87.30;;;;;;5171050;28;20413;-70
2021/01/28 09:04:33;;;;;;;13.93;12.93;;;2.30;87.30;;;;;;5174576;28;20048;-71
2021/01/28 09:07:05;;;;;;;20.67;18.77;;;2.30;87.30;;;;;;5173177;28;20045;-71
2021/01/28 09:09:37;;;;;;;31.05;27.75;;;2.30;86.90;;;;;;5173105;28;20042;-70
2021/01/28 09:12:31;;;;;;;22.25;20.27;;;2.30;86.90;;;;;;5170786;28;20046;-71
2021/01/28 09:15:15;;;;;;;14.98;13.77;;;2.30;88.00;;;;;;5170385;28;20112;-72
2021/01/28 09:17:47;;;;;;;14.40;13.30;;;2.30;87.30;;;;;;5170158;28;20444;-70
2021/01/28 09:20:37;;;;;;;14.23;13.23;;;2.30;87.90;;;;;;5172349;28;20053;-72
2021/01/28 09:23:18;;;;;;;14.20;13.20;;;2.30;88.10;;;;;;5169740;28;20131;-72
2021/01/28 09:26:18;;;;;;;13.90;12.90;;;2.40;87.50;;;;;;5170461;28;20042;-73
2021/01/28 09:28:49;;;;;;;13.80;12.80;;;2.40;88.50;;;;;;5187301;28;20038;-70
2021/01/28 09:31:28;;;;;;;14.13;13.13;;;2.40;87.80;;;;;;5169560;28;20509;-72
2021/01/28 09:34:14;;;;;;;14.02;13.02;;;2.40;89.00;;;;;;5156822;28;20136;-72
2021/01/28 09:36:54;;;;;;;14.32;13.23;;;2.40;87.40;;;;;;5172109;28;20390;-73
2021/01/28 09:39:46;;;;;;;14.27;13.25;;;2.40;87.60;;;;;;5172236;28;20290;-74
2021/01/28 09:42:28;;;;;;;14.13;13.02;;;2.30;87.30;;;;;;5167937;28;20728;-71
2021/01/28 09:45:05;;;;;;;13.80;12.88;;;2.30;88.60;;;;;;5171221;28;20045;-73
2021/01/28 09:47:38;;;;;;;13.70;12.75;;;2.30;87.80;;;;;;5172705;28;20112;-73
2021/01/28 09:50:11;;;;;;;13.50;12.48;;;2.30;88.30;;;;;;5163686;28;20792;-72
2021/01/28 09:52:46;;;;;;;13.95;12.95;;;2.30;87.60;;;;;;5167398;28;20444;-73
2021/01/28 09:55:21;;;;;;;14.25;13.25;;;2.20;88.70;;;;;;5169410;28;20046;-74
2021/01/28 09:57:53;;;;;;;13.60;12.60;;;2.30;88.90;;;;;;5165860;28;20121;-73
2021/01/28 10:00:25;;;;;;;13.88;12.82;;;2.30;88.40;;;;;;5147874;28;20371;-76
2021/01/28 10:03:05;;;;;;;13.52;12.63;;;2.40;88.10;;;;;;5169495;28;20108;-74
2021/01/28 10:05:37;;;;;;;14.55;13.35;;;2.50;87.80;;;;;;5165234;28;20150;-71
2021/01/28 10:08:09;;;;;;;14.07;12.98;;;2.50;87.10;;;;;;5186523;28;20136;-70
2021/01/28 10:10:41;;;;;;;15.02;13.93;;;2.40;88.40;;;;;;5146273;28;20047;-72
2021/01/28 10:13:16;;;;;;;14.27;13.27;;;2.40;88.90;;;;;;5165525;28;20104;-70
2021/01/28 10:15:48;;;;;;;14.52;13.50;;;2.40;89.20;;;;;;5163889;28;20050;-70
2021/01/28 10:18:20;;;;;;;14.60;13.52;;;2.40;89.80;;;;;;5169230;28;20520;-70
2021/01/28 10:20:51;;;;;;;13.90;12.90;;;2.40;89.10;;;;;;5165792;28;20038;-70
2021/01/28 10:23:23;;;;;;;14.52;13.43;;;2.50;89.00;;;;;;5169022;28;20041;-70
2021/01/28 10:25:54;;;;;;;14.82;13.73;;;2.50;89.10;;;;;;5167198;28;20045;-70
2021/01/28 10:28:26;;;;;;;13.57;12.68;;;2.50;88.90;;;;;;5166451;28;20050;-70
2021/01/28 10:30:57;;;;;;;14.23;13.13;;;2.60;88.80;;;;;;5184550;28;20054;-71
2021/01/28 10:33:30;;;;;;;14.13;13.13;;;2.70;88.30;;;;;;5148728;28;20045;-70
2021/01/28 10:36:03;;;;;;;13.88;12.88;;;2.60;87.40;;;;;;5164930;28;20045;-72
2021/01/28 10:38:35;;;;;;;13.55;12.63;;;2.60;88.30;;;;;;5168244;28;20498;-70
2021/01/28 10:41:07;;;;;;;14.05;13.05;;;2.70;88.50;;;;;;5165762;28;20045;-71
2021/01/28 10:43:38;;;;;;;14.20;13.20;;;2.70;88.00;;;;;;5168679;28;20031;-72
2021/01/28 10:46:10;;;;;;;13.57;12.57;;;2.70;88.10;;;;;;5167923;28;20100;-71
2021/01/28 10:48:42;;;;;;;13.02;12.02;;;2.80;87.90;;;;;;5173514;28;20070;-71
2021/01/28 10:51:14;;;;;;;13.88;12.88;;;2.80;87.40;;;;;;5161371;28;20061;-73
2021/01/28 10:53:45;;;;;;;13.77;12.77;;;2.80;87.40;;;;;;5162930;28;20965;-71
2021/01/28 10:56:16;;;;;;;13.60;12.60;;;2.80;87.20;;;;;;5163324;28;20747;-72
2021/01/28 10:58:48;;;;;;;14.80;13.50;;;2.90;88.00;;;;;;5166869;28;20255;-74
2021/01/28 11:01:20;;;;;;;13.80;12.80;;;2.90;87.00;;;;;;5171083;28;20042;-71
2021/01/28 11:03:53;;;;;;;13.85;12.75;;;3.00;87.30;;;;;;5159088;28;20049;-72
2021/01/28 11:06:24;;;;;;;13.50;12.52;;;3.00;87.00;;;;;;5172012;28;20034;-71
2021/01/28 11:08:55;;;;;;;14.15;13.05;;;3.10;86.90;;;;;;5167299;28;20046;-72
2021/01/28 11:11:27;;;;;;;14.20;13.20;;;3.10;86.50;;;;;;5167458;28;20812;-73
2021/01/28 11:13:59;;;;;;;14.23;13.23;;;3.10;87.50;;;;;;5171740;28;20481;-70
2021/01/28 11:16:34;;;;;;;14.73;13.73;;;3.10;87.60;;;;;;5172535;28;20409;-72
2021/01/28 11:19:07;;;;;;;15.05;13.95;;;3.10;87.00;;;;;;5169633;28;20052;-73
2021/01/28 11:21:39;;;;;;;14.88;13.77;;;3.20;86.30;;;;;;5168188;28;20069;-68
2021/01/28 11:24:12;;;;;;;14.25;13.25;;;3.20;86.40;;;;;;5169766;28;20053;-70
2021/01/28 11:26:43;;;;;;;14.60;13.60;;;3.20;86.70;;;;;;5188306;28;20057;-72
2021/01/28 11:29:21;;;;;;;14.40;13.30;;;3.20;87.00;;;;;;5168651;28;20041;-75
2021/01/28 11:31:53;;;;;;;14.80;13.73;;;3.20;86.90;;;;;;5170029;28;20954;-71
2021/01/28 11:34:27;;;;;;;14.50;13.40;;;3.30;86.80;;;;;;5166228;28;20043;-71
2021/01/28 11:36:59;;;;;;;14.00;13.00;;;3.30;85.90;;;;;;5158857;28;20817;-71
2021/01/28 11:39:30;;;;;;;14.10;13.10;;;3.30;86.90;;;;;;5170222;28;20034;-71
2021/01/28 11:42:02;;;;;;;14.27;13.27;;;3.40;86.70;;;;;;5171544;28;20517;-70
2021/01/28 11:44:33;;;;;;;15.00;13.75;;;3.30;86.90;;;;;;5172813;28;20457;-70
2021/01/28 11:47:05;;;;;;;14.77;13.70;;;3.30;87.20;;;;;;5166989;28;20132;-70
2021/01/28 11:49:36;;;;;;;14.60;13.57;;;3.20;88.20;;;;;;5171708;28;20050;-71
2021/01/28 11:52:08;;;;;;;14.07;12.98;;;3.30;87.50;;;;;;5168817;28;20050;-74
2021/01/28 11:54:39;;;;;;;14.02;13.02;;;3.30;87.80;;;;;;5170753;28;20037;-70
2021/01/28 11:57:11;;;;;;;14.32;13.32;;;3.30;88.40;;;;;;5169543;28;20042;-71
2021/01/28 11:59:42;;;;;;;13.93;12.93;;;3.30;88.00;;;;;;5173325;28;20057;-72
2021/01/28 12:02:14;;;;;;;14.20;13.20;;;3.30;87.90;;;;;;5173246;28;20073;-70
2021/01/28 12:04:46;;;;;;;14.18;13.18;;;3.30;87.90;;;;;;5169279;28;20044;-73
2021/01/28 12:07:18;;;;;;;13.57;12.57;;;3.30;87.50;;;;;;5170762;28;20453;-73
2021/01/28 12:09:49;;;;;;;13.82;12.82;;;3.30;88.10;;;;;;5152897;28;20133;-70
2021/01/28 12:12:21;;;;;;;14.10;13.00;;;3.30;87.70;;;;;;5167436;28;20046;-71
2021/01/28 12:14:53;;;;;;;13.77;12.77;;;3.40;87.40;;;;;;5174410;28;20129;-70
2021/01/28 12:17:24;;;;;;;14.13;13.13;;;3.30;87.70;;;;;;5165525;28;20050;-70
2021/01/28 12:19:56;;;;;;;14.05;13.05;;;3.30;87.60;;;;;;5169901;28;20041;-71
2021/01/28 12:22:27;;;;;;;14.55;13.45;;;3.30;88.50;;;;;;5169893;28;20046;-70
2021/01/28 12:24:59;;;;;;;14.30;13.30;;;3.30;88.40;;;;;;5173450;28;20038;-71
2021/01/28 12:27:31;;;;;;;14.30;13.30;;;3.40;88.00;;;;;;5134135;28;20133;-69
2021/01/28 12:30:06;;;;;;;14.25;13.00;;;3.40;87.30;;;;;;5173022;28;20045;-70
2021/01/28 12:32:37;;;;;;;14.00;13.00;;;3.40;87.80;;;;;;5165499;28;20040;-70
2021/01/28 12:35:09;;;;;;;14.02;13.02;;;3.50;88.30;;;;;;5150847;28;20047;-70
2021/01/28 12:37:42;;;;;;;13.95;12.95;;;3.50;88.50;;;;;;5170374;28;20092;-68
2021/01/28 12:40:15;;;;;;;14.57;13.57;;;3.50;88.40;;;;;;5166612;28;20529;-69
2021/01/28 12:42:47;;;;;;;14.68;13.68;;;3.50;88.10;;;;;;5184955;28;20666;-69
2021/01/28 12:45:19;;;;;;;13.95;12.95;;;3.50;88.20;;;;;;5163944;28;20496;-70
2021/01/28 12:47:50;;;;;;;14.98;13.88;;;3.60;88.00;;;;;;5167761;28;20069;-70
2021/01/28 12:50:22;;;;;;;14.75;13.75;;;3.50;87.40;;;;;;5167649;28;20057;-72
2021/01/28 12:52:55;;;;;;;14.82;13.80;;;3.60;87.80;;;;;;5171450;28;20072;-69
2021/01/28 12:55:27;;;;;;;14.73;13.63;;;3.70;87.30;;;;;;5173756;28;20042;-69
2021/01/28 12:57:59;;;;;;;14.63;13.63;;;3.70;87.20;;;;;;5169806;28;20049;-73
2021/01/28 13:00:31;;;;;;;15.85;14.75;;;3.80;87.60;;;;;;5155534;28;20558;-74
2021/01/28 13:03:04;;;;;;;15.80;14.70;;;4.00;88.40;;;;;;5173672;28;20049;-72
2021/01/28 13:05:35;;;;;;;15.60;14.40;;;4.20;88.90;;;;;;5173647;28;20510;-71
2021/01/28 13:08:11;;;;;;;16.15;14.95;;;4.30;87.00;;;;;;5169932;28;20049;-72
2021/01/28 13:10:42;;;;;;;14.70;13.70;;;4.40;87.10;;;;;;5193226;23;20104;-72
2021/01/28 13:13:14;;;;;;;15.05;13.90;;;4.50;87.30;;;;;;5191166;28;20056;-72
2021/01/28 13:15:46;;;;;;;15.30;14.23;;;4.60;86.50;;;;;;5175314;28;20049;-72
2021/01/28 13:18:18;;;;;;;15.27;14.18;;;4.80;86.20;;;;;;5191295;28;20042;-72
2021/01/28 13:20:49;;;;;;;15.27;14.18;;;4.80;85.70;;;;;;5189103;28;20038;-73
2021/01/28 13:23:21;;;;;;;14.55;13.55;;;4.80;85.90;;;;;;5187882;28;20504;-73
2021/01/28 13:25:53;;;;;;;15.40;14.20;;;4.80;86.40;;;;;;5158519;28;20656;-70
2021/01/28 13:28:25;;;;;;;15.32;14.23;;;4.80;85.30;;;;;;5155454;28;20050;-70
2021/01/28 13:30:56;;;;;;;14.70;13.60;;;4.70;86.00;;;;;;5155593;28;20453;-72
2021/01/28 13:33:28;;;;;;;14.40;13.40;;;4.70;86.10;;;;;;5174652;28;20046;-74
2021/01/28 13:36:00;;;;;;;14.93;13.82;;;4.80;85.20;;;;;;5184070;28;20069;-71
2021/01/28 13:38:31;;;;;;;15.60;14.50;;;4.90;85.60;;;;;;5187482;28;20097;-70
2021/01/28 13:41:04;;;;;;;14.80;13.75;;;4.90;85.70;;;;;;5158752;28;20038;-71
2021/01/28 13:43:37;;;;;;;15.05;13.98;;;4.90;85.40;;;;;;5159517;28;20797;-70
2021/01/28 13:46:08;;;;;;;14.45;13.45;;;4.90;85.30;;;;;;5166224;28;20469;-71
2021/01/28 13:48:40;;;;;;;15.27;14.18;;;4.90;85.10;;;;;;5178939;28;20531;-71